createdAt,value
2018-06-01T00:00:40.323Z,3.40
2018-06-01T00:03:06.686Z,2.50
2018-06-01T00:05:33.012Z,2.97
2018-06-01T00:07:59.398Z,6.53
2018-06-01T00:10:25.754Z,5.70
2018-06-01T00:12:52.190Z,4.10
2018-06-01T00:15:18.622Z,4.57
2018-06-01T00:17:44.970Z,3.67
2018-06-01T00:20:11.389Z,3.43
2018-06-01T00:22:37.718Z,5.43
2018-06-01T00:25:04.073Z,3.53
2018-06-01T00:27:30.461Z,3.33
2018-06-01T00:29:56.812Z,4.93
2018-06-01T00:32:23.152Z,3.20
2018-06-01T00:34:49.511Z,3.83
2018-06-01T00:37:15.820Z,7.50
2018-06-01T00:39:42.139Z,2.50
2018-06-01T00:42:08.506Z,3.80
2018-06-01T00:44:35.712Z,4.20
2018-06-01T00:47:02.088Z,4.03
2018-06-01T00:49:28.520Z,4.97
2018-06-01T00:51:54.921Z,4.27
2018-06-01T00:54:21.279Z,3.17
2018-06-01T00:56:47.619Z,3.30
2018-06-01T00:59:13.993Z,3.37
2018-06-01T01:01:40.324Z,3.20
2018-06-01T01:04:06.705Z,3.33
2018-06-01T01:06:33.053Z,4.97
2018-06-01T01:08:59.430Z,3.70
2018-06-01T01:11:25.762Z,4.03
2018-06-01T01:13:52.116Z,3.60
2018-06-01T01:16:18.498Z,4.23
2018-06-01T01:18:44.900Z,3.70
2018-06-01T01:21:11.212Z,4.13
2018-06-01T01:23:37.629Z,4.07
2018-06-01T01:26:03.982Z,4.60
2018-06-01T01:28:30.373Z,5.30
2018-06-01T01:30:56.807Z,3.73
2018-06-01T01:33:23.173Z,6.37
2018-06-01T01:35:49.534Z,3.13
2018-06-01T01:38:16.826Z,3.07
2018-06-01T01:40:43.293Z,3.67
2018-06-01T01:43:09.564Z,5.37
2018-06-01T01:45:35.930Z,5.93
2018-06-01T01:48:02.374Z,3.93
2018-06-01T01:50:28.715Z,7.40
2018-06-01T01:52:55.074Z,4.57
2018-06-01T01:55:21.429Z,4.03
2018-06-01T01:57:47.745Z,2.67
2018-06-01T02:00:14.241Z,5.37
2018-06-01T02:02:40.629Z,3.17
2018-06-01T02:05:06.984Z,3.10
2018-06-01T02:07:33.392Z,5.17
2018-06-01T02:09:59.730Z,5.37
2018-06-01T02:12:26.100Z,5.93
2018-06-01T02:14:52.534Z,5.07
2018-06-01T02:17:18.906Z,4.07
2018-06-01T02:19:45.271Z,6.70
2018-06-01T02:22:11.695Z,5.93
2018-06-01T02:24:38.052Z,3.80
2018-06-01T02:27:04.413Z,5.23
2018-06-01T02:29:30.808Z,5.40
2018-06-01T02:31:57.163Z,7.90
2018-06-01T02:34:23.506Z,5.23
2018-06-01T02:36:49.923Z,4.83
2018-06-01T02:39:16.253Z,5.13
2018-06-01T02:41:42.687Z,5.30
2018-06-01T02:44:09.224Z,3.57
2018-06-01T02:46:35.607Z,4.87
2018-06-01T02:49:02.024Z,5.57
2018-06-01T02:51:28.404Z,6.13
2018-06-01T02:53:54.783Z,7.93
2018-06-01T02:56:21.141Z,7.30
2018-06-01T02:58:47.678Z,8.63
2018-06-01T03:01:14.062Z,6.93
2018-06-01T03:03:40.398Z,5.47
2018-06-01T03:06:06.771Z,7.90
2018-06-01T03:08:33.100Z,8.77
2018-06-01T03:11:00.065Z,7.93
2018-06-01T03:13:26.406Z,6.90
2018-06-01T03:15:53.698Z,4.97
2018-06-01T03:18:20.049Z,8.07
2018-06-01T03:20:46.365Z,8.10
2018-06-01T03:23:12.786Z,7.53
2018-06-01T03:25:39.129Z,5.27
2018-06-01T03:28:05.462Z,6.30
2018-06-01T03:30:31.844Z,6.83
2018-06-01T03:32:58.234Z,4.73
2018-06-01T03:35:24.568Z,7.57
2018-06-01T03:37:50.965Z,7.03
2018-06-01T03:40:17.399Z,6.33
2018-06-01T03:42:43.746Z,9.67
2018-06-01T03:45:10.261Z,8.30
2018-06-01T03:47:36.632Z,9.90
2018-06-01T03:50:03.025Z,6.70
2018-06-01T03:52:29.439Z,9.00
2018-06-01T03:54:55.778Z,6.77
2018-06-01T03:57:22.150Z,10.70
2018-06-01T03:59:48.561Z,8.53
2018-06-01T04:02:14.892Z,8.40
2018-06-01T04:04:42.106Z,8.40
2018-06-01T04:07:08.483Z,7.63
2018-06-01T04:09:34.827Z,8.47
2018-06-01T04:12:01.240Z,6.87
2018-06-01T04:14:27.609Z,9.90
2018-06-01T04:16:54.215Z,33.50
2018-06-01T04:19:20.582Z,21.97
2018-06-01T04:21:46.975Z,12.03
2018-06-01T04:24:14.293Z,8.20
2018-06-01T04:26:40.644Z,6.13
2018-06-01T04:29:07.017Z,8.13
2018-06-01T04:31:33.631Z,6.10
2018-06-01T04:33:59.985Z,5.57
2018-06-01T04:36:26.417Z,9.40
2018-06-01T04:38:52.929Z,4.60
2018-06-01T04:41:19.487Z,3.97
2018-06-01T04:43:45.864Z,5.83
2018-06-01T04:46:12.216Z,5.23
2018-06-01T04:48:38.581Z,4.60
2018-06-01T04:51:04.965Z,5.00
2018-06-01T04:53:31.296Z,3.73
2018-06-01T04:55:57.629Z,4.77
2018-06-01T04:58:24.030Z,7.73
2018-06-01T05:00:50.408Z,5.13
2018-06-01T05:03:16.757Z,4.93
2018-06-01T05:05:43.246Z,6.10
2018-06-01T05:08:09.645Z,3.20
2018-06-01T05:10:36.024Z,6.03
2018-06-01T05:13:02.415Z,5.47
2018-06-01T05:15:28.821Z,4.47
2018-06-01T05:17:55.169Z,9.07
2018-06-01T05:20:21.556Z,6.90
2018-06-01T05:22:47.937Z,8.63
2018-06-01T05:25:14.376Z,5.90
2018-06-01T05:27:40.746Z,5.17
2018-06-01T05:30:07.214Z,33.17
2018-06-01T05:32:33.594Z,7.30
2018-06-01T05:35:00.076Z,4.70
2018-06-01T05:37:27.053Z,5.93
2018-06-01T05:39:53.567Z,6.20
2018-06-01T05:42:20.042Z,7.83
2018-06-01T05:44:46.410Z,5.13
2018-06-01T05:47:12.794Z,6.83
2018-06-01T05:49:39.182Z,5.00
2018-06-01T05:52:05.539Z,4.70
2018-06-01T05:54:31.896Z,7.13
2018-06-01T05:56:58.241Z,17.13
2018-06-01T05:59:24.632Z,14.73
2018-06-01T06:01:51.042Z,13.30
2018-06-01T06:04:17.387Z,32.00
2018-06-01T06:06:43.718Z,83.67
2018-06-01T06:09:10.152Z,37.40
2018-06-01T06:11:36.690Z,22.23
2018-06-01T06:14:03.019Z,20.27
2018-06-01T06:16:29.408Z,9.27
2018-06-01T06:18:55.772Z,12.77
2018-06-01T06:21:22.218Z,70.10
2018-06-01T06:23:48.585Z,153.50
2018-06-01T06:26:15.082Z,120.43
2018-06-01T06:28:41.661Z,200.60
2018-06-01T06:31:08.049Z,186.30
2018-06-01T06:33:34.425Z,217.53
2018-06-01T06:36:00.789Z,139.43
2018-06-01T06:38:27.125Z,66.70
2018-06-01T06:40:53.520Z,44.93
2018-06-01T06:43:19.915Z,66.33
2018-06-01T06:45:46.486Z,65.63
2018-06-01T06:48:12.829Z,27.70
2018-06-01T06:50:39.216Z,434.33
2018-06-01T06:53:05.584Z,353.37
2018-06-01T06:55:31.938Z,447.27
2018-06-01T06:57:58.414Z,655.97
2018-06-01T07:00:24.744Z,443.20
2018-06-01T07:02:51.121Z,413.67
2018-06-01T07:05:17.480Z,305.47
2018-06-01T07:07:43.878Z,262.60
2018-06-01T07:10:10.233Z,180.17
2018-06-01T07:12:36.616Z,189.03
2018-06-01T07:15:03.015Z,31.60
2018-06-01T07:17:29.402Z,43.60
2018-06-01T07:19:55.778Z,30.73
2018-06-01T07:22:22.146Z,31.00
2018-06-01T07:24:49.047Z,25.40
2018-06-01T07:27:15.398Z,35.20
2018-06-01T07:29:41.741Z,17.27
2018-06-01T07:32:08.091Z,12.07
2018-06-01T07:34:34.457Z,33.47
2018-06-01T07:37:00.843Z,20.27
2018-06-01T07:39:27.376Z,18.50
2018-06-01T07:41:53.908Z,19.43
2018-06-01T07:44:20.346Z,6.77
2018-06-01T07:46:46.724Z,31.33
2018-06-01T07:49:13.341Z,21.33
2018-06-01T07:51:39.707Z,10.77
2018-06-01T07:54:06.070Z,14.07
2018-06-01T07:56:32.407Z,5.23
2018-06-01T07:58:58.772Z,24.23
2018-06-01T08:01:25.148Z,16.70
2018-06-01T08:03:51.665Z,16.57
2018-06-01T08:06:18.060Z,8.17
2018-06-01T08:08:44.626Z,11.53
2018-06-01T08:11:10.983Z,13.30
2018-06-01T08:13:37.334Z,15.50
2018-06-01T08:16:03.771Z,26.73
2018-06-01T08:18:30.280Z,12.83
2018-06-01T08:20:56.680Z,8.73
2018-06-01T08:23:23.197Z,23.50
2018-06-01T08:25:49.541Z,35.27
2018-06-01T08:28:15.893Z,12.47
2018-06-01T08:30:42.271Z,14.70
2018-06-01T08:33:08.660Z,8.33
2018-06-01T08:35:35.192Z,9.60
2018-06-01T08:38:01.604Z,9.83
2018-06-01T08:40:27.977Z,11.67
2018-06-01T08:42:54.320Z,7.43
2018-06-01T08:45:20.666Z,7.60
2018-06-01T08:47:47.039Z,10.57
2018-06-01T08:50:13.547Z,10.33
2018-06-01T08:52:39.889Z,8.23
2018-06-01T08:55:06.267Z,9.27
2018-06-01T08:57:32.662Z,10.50
2018-06-01T08:59:59.001Z,10.43
2018-06-01T09:02:25.405Z,9.03
2018-06-01T09:04:51.800Z,13.37
2018-06-01T09:07:18.233Z,8.73
2018-06-01T09:09:44.624Z,16.47
2018-06-01T09:12:10.961Z,11.40
2018-06-01T09:14:37.472Z,8.27
2018-06-01T09:17:03.943Z,37.77
2018-06-01T09:19:30.290Z,17.43
2018-06-01T09:21:56.669Z,9.70
2018-06-01T09:24:23.106Z,12.93
2018-06-01T09:26:49.568Z,8.17
2018-06-01T09:29:15.936Z,5.47
2018-06-01T09:31:42.962Z,7.60
2018-06-01T09:34:09.351Z,5.60
2018-06-01T09:36:35.725Z,6.23
2018-06-01T09:39:02.180Z,8.00
2018-06-01T09:41:28.742Z,7.47
2018-06-01T09:43:55.111Z,5.27
2018-06-01T09:46:21.464Z,3.90
2018-06-01T09:48:48.744Z,4.90
2018-06-01T09:51:15.227Z,5.23
2018-06-01T09:53:41.573Z,7.70
2018-06-01T09:56:08.058Z,4.77
2018-06-01T09:58:34.425Z,8.50
2018-06-01T10:01:01.029Z,11.43
2018-06-01T10:03:27.408Z,4.87
2018-06-01T10:05:53.842Z,6.03
2018-06-01T10:08:20.411Z,9.17
2018-06-01T10:10:46.794Z,5.63
2018-06-01T10:13:13.266Z,10.93
2018-06-01T10:15:39.770Z,6.50
2018-06-01T10:18:06.145Z,4.13
2018-06-01T10:20:34.588Z,5.33
2018-06-01T10:23:01.032Z,4.83
2018-06-01T10:25:27.386Z,8.17
2018-06-01T10:27:53.808Z,5.37
2018-06-01T10:30:20.183Z,4.40
2018-06-01T10:32:46.522Z,4.63
2018-06-01T10:35:13.544Z,5.30
2018-06-01T10:37:39.934Z,6.87
2018-06-01T10:40:06.282Z,5.07
2018-06-01T10:42:32.625Z,8.63
2018-06-01T10:44:58.988Z,4.27
2018-06-01T10:47:25.374Z,5.43
2018-06-01T10:49:51.727Z,5.20
2018-06-01T10:52:18.076Z,5.30
2018-06-01T10:54:44.428Z,8.07
2018-06-01T10:57:10.792Z,5.47
2018-06-01T10:59:37.761Z,4.80
2018-06-01T11:02:04.178Z,6.37
2018-06-01T11:04:30.568Z,4.33
2018-06-01T11:06:56.943Z,4.67
2018-06-01T11:09:23.290Z,4.73
2018-06-01T11:11:49.633Z,5.27
2018-06-01T11:14:16.022Z,6.13
2018-06-01T11:16:42.382Z,6.80
2018-06-01T11:19:08.711Z,5.50
2018-06-01T11:21:35.383Z,10.20
2018-06-01T11:24:01.714Z,5.20
2018-06-01T11:26:28.097Z,8.17
2018-06-01T11:28:54.454Z,5.50
2018-06-01T11:31:20.828Z,7.53
2018-06-01T11:34:12.352Z,7.67
2018-06-01T11:36:41.387Z,4.23
2018-06-01T11:39:08.005Z,5.53
2018-06-01T11:41:34.414Z,4.90
2018-06-01T11:44:00.764Z,4.80
2018-06-01T11:46:27.126Z,8.63
2018-06-01T11:48:53.489Z,5.37
2018-06-01T11:51:19.945Z,5.43
2018-06-01T11:53:46.264Z,7.90
2018-06-01T11:56:12.633Z,8.33
2018-06-01T11:58:39.030Z,4.70
2018-06-01T12:01:05.410Z,5.80
2018-06-01T12:03:31.776Z,5.00
2018-06-01T12:05:58.178Z,4.30
2018-06-01T12:08:24.534Z,4.20
2018-06-01T12:10:51.088Z,4.90
2018-06-01T12:13:17.439Z,4.53
2018-06-01T12:15:43.781Z,4.43
2018-06-01T12:18:10.144Z,5.13
2018-06-01T12:20:36.531Z,6.10
2018-06-01T12:23:03.083Z,6.07
2018-06-01T12:25:29.451Z,6.53
2018-06-01T12:27:55.859Z,5.73
2018-06-01T12:30:22.332Z,4.53
2018-06-01T12:32:48.684Z,6.37
2018-06-01T12:35:15.018Z,5.00
2018-06-01T12:37:42.387Z,4.83
2018-06-01T12:40:08.734Z,9.20
2018-06-01T12:42:35.083Z,4.40
2018-06-01T12:45:01.474Z,4.93
2018-06-01T12:47:27.810Z,5.17
2018-06-01T12:49:54.159Z,4.33
2018-06-01T12:52:20.522Z,6.90
2018-06-01T12:54:46.874Z,6.27
2018-06-01T12:57:13.229Z,6.13
2018-06-01T12:59:39.690Z,4.63
2018-06-01T13:02:06.075Z,9.57
2018-06-01T13:04:32.467Z,5.57
2018-06-01T13:06:58.960Z,5.43
2018-06-01T13:09:25.447Z,4.90
2018-06-01T13:11:51.851Z,4.53
2018-06-01T13:14:18.209Z,5.30
2018-06-01T13:16:44.551Z,5.67
2018-06-01T13:19:11.060Z,9.57
2018-06-01T13:21:37.461Z,6.57
2018-06-01T13:24:04.311Z,6.33
2018-06-01T13:26:30.640Z,5.87
2018-06-01T13:28:57.003Z,5.70
2018-06-01T13:31:23.402Z,10.33
2018-06-01T13:33:49.931Z,5.10
2018-06-01T13:36:16.453Z,12.57
2018-06-01T13:38:42.881Z,6.67
2018-06-01T13:41:09.265Z,13.07
2018-06-01T13:43:35.829Z,12.73
2018-06-01T13:46:02.317Z,13.30
2018-06-01T13:48:28.898Z,11.23
2018-06-01T13:50:55.228Z,14.90
2018-06-01T13:53:21.568Z,10.03
2018-06-01T13:55:48.109Z,9.27
2018-06-01T13:58:14.465Z,11.33
2018-06-01T14:00:40.814Z,9.73
2018-06-01T14:03:07.166Z,8.03
2018-06-01T14:05:33.574Z,7.80
2018-06-01T14:08:00.034Z,6.63
2018-06-01T14:10:26.416Z,6.50
2018-06-01T14:12:52.905Z,7.20
2018-06-01T14:15:19.334Z,8.30
2018-06-01T14:17:45.918Z,6.90
2018-06-01T14:20:12.309Z,7.83
2018-06-01T14:22:38.668Z,6.93
2018-06-01T14:25:05.129Z,5.63
2018-06-01T14:27:31.473Z,5.57
2018-06-01T14:29:57.826Z,8.43
2018-06-01T14:32:24.433Z,5.57
2018-06-01T14:34:51.109Z,5.47
2018-06-01T14:37:17.509Z,7.13
2018-06-01T14:39:43.854Z,8.70
2018-06-01T14:42:10.211Z,7.40
2018-06-01T14:44:36.806Z,9.20
2018-06-01T14:47:03.219Z,11.97
2018-06-01T14:49:29.637Z,11.37
2018-06-01T14:51:55.997Z,12.63
2018-06-01T14:54:22.395Z,10.43
2018-06-01T14:56:48.915Z,11.00
2018-06-01T14:59:15.273Z,6.80
2018-06-01T15:01:41.656Z,11.17
2018-06-01T15:04:08.074Z,8.20
2018-06-01T15:06:34.467Z,51.63
2018-06-01T15:09:00.871Z,9.53
2018-06-01T15:11:27.230Z,10.37
2018-06-01T15:13:53.673Z,8.23
2018-06-01T15:16:20.028Z,7.00
2018-06-01T15:18:46.497Z,7.47
2018-06-01T15:21:12.836Z,6.10
2018-06-01T15:23:39.185Z,6.23
2018-06-01T15:26:05.513Z,8.80
2018-06-01T15:28:31.863Z,5.60
2018-06-01T15:30:58.513Z,10.03
2018-06-01T15:33:25.018Z,8.83
2018-06-01T15:35:51.349Z,9.93
2018-06-01T15:38:17.689Z,13.90
2018-06-01T15:40:44.052Z,18.33
2018-06-01T15:43:10.450Z,7.03
2018-06-01T15:45:36.833Z,14.97
2018-06-01T15:48:03.254Z,10.43
2018-06-01T15:50:29.625Z,7.17
2018-06-01T15:52:55.945Z,6.63
2018-06-01T15:55:22.287Z,6.40
2018-06-01T15:57:48.648Z,5.47
2018-06-01T16:00:15.013Z,7.27
2018-06-01T16:02:41.369Z,6.93
2018-06-01T16:05:07.747Z,5.67
2018-06-01T16:07:34.110Z,8.00
2018-06-01T16:10:00.444Z,9.33
2018-06-01T16:12:26.811Z,6.37
2018-06-01T16:14:53.201Z,10.40
2018-06-01T16:17:19.600Z,9.50
2018-06-01T16:19:46.112Z,7.07
2018-06-01T16:22:12.451Z,8.40
2018-06-01T16:24:38.806Z,7.43
2018-06-01T16:27:05.209Z,6.93
2018-06-01T16:29:31.578Z,7.27
2018-06-01T16:31:57.946Z,7.37
2018-06-01T16:34:25.129Z,6.27
2018-06-01T16:36:51.486Z,6.73
2018-06-01T16:39:17.861Z,6.70
2018-06-01T16:41:44.236Z,6.83
2018-06-01T16:44:10.583Z,7.73
2018-06-01T16:46:36.939Z,12.17
2018-06-01T16:49:03.385Z,6.47
2018-06-01T16:51:29.766Z,9.53
2018-06-01T16:53:56.110Z,13.27
2018-06-01T16:56:22.459Z,7.17
2018-06-01T16:58:48.782Z,8.00
2018-06-01T17:01:15.109Z,5.87
2018-06-01T17:03:41.434Z,12.70
2018-06-01T17:06:07.850Z,8.20
2018-06-01T17:08:34.169Z,13.50
2018-06-01T17:11:00.500Z,9.50
2018-06-01T17:13:26.831Z,7.83
2018-06-01T17:15:53.163Z,7.90
2018-06-01T17:18:19.547Z,6.33
2018-06-01T17:20:45.887Z,10.03
2018-06-01T17:23:12.232Z,8.37
2018-06-01T17:25:38.583Z,9.07
2018-06-01T17:28:04.966Z,7.93
2018-06-01T17:30:31.325Z,6.00
2018-06-01T17:32:57.672Z,10.03
2018-06-01T17:35:24.009Z,6.30
2018-06-01T17:37:50.396Z,6.63
2018-06-01T17:40:16.770Z,11.53
2018-06-01T17:42:43.135Z,6.07
2018-06-01T17:45:10.294Z,7.10
2018-06-01T17:47:36.658Z,8.60
2018-06-01T17:50:03.118Z,9.10
2018-06-01T17:52:29.577Z,7.17
2018-06-01T17:54:55.982Z,5.20
2018-06-01T17:57:22.409Z,6.97
2018-06-01T17:59:48.815Z,9.90
2018-06-01T18:02:15.193Z,9.33
2018-06-01T18:04:41.597Z,7.07
2018-06-01T18:07:08.076Z,7.17
2018-06-01T18:09:34.416Z,6.00
2018-06-01T18:12:00.794Z,5.90
2018-06-01T18:14:27.284Z,7.87
2018-06-01T18:16:53.642Z,5.50
2018-06-01T18:19:19.987Z,6.83
2018-06-01T18:21:46.354Z,7.70
2018-06-01T18:24:12.702Z,8.47
2018-06-01T18:26:39.113Z,6.83
2018-06-01T18:29:05.496Z,5.20
2018-06-01T18:31:31.913Z,7.53
2018-06-01T18:33:58.257Z,9.90
2018-06-01T18:36:24.637Z,10.30
2018-06-01T18:38:51.021Z,15.37
2018-06-01T18:41:17.407Z,10.40
2018-06-01T18:43:43.786Z,12.10
2018-06-01T18:46:10.123Z,9.17
2018-06-01T18:48:36.466Z,8.23
2018-06-01T18:51:02.803Z,6.40
2018-06-01T18:53:29.161Z,5.83
2018-06-01T18:55:55.502Z,7.93
2018-06-01T18:58:21.965Z,6.27
2018-06-01T19:00:48.319Z,6.13
2018-06-01T19:03:14.833Z,5.90
2018-06-01T19:05:41.692Z,5.47
2018-06-01T19:08:08.214Z,8.63
2018-06-01T19:10:34.560Z,6.63
2018-06-01T19:13:00.940Z,7.93
2018-06-01T19:15:27.373Z,8.40
2018-06-01T19:17:54.546Z,5.27
2018-06-01T19:20:20.979Z,12.27
2018-06-01T19:22:47.334Z,8.07
2018-06-01T19:25:13.680Z,10.63
2018-06-01T19:27:40.042Z,6.90
2018-06-01T19:30:06.441Z,6.97
2018-06-01T19:32:32.768Z,9.03
2018-06-01T19:34:59.713Z,7.20
2018-06-01T19:37:26.091Z,9.73
2018-06-01T19:39:52.446Z,7.50
2018-06-01T19:42:18.783Z,10.63
2018-06-01T19:44:45.211Z,13.23
2018-06-01T19:47:11.574Z,10.27
2018-06-01T19:49:37.915Z,8.53
2018-06-01T19:52:04.265Z,11.40
2018-06-01T19:54:30.638Z,8.50
2018-06-01T19:56:56.967Z,10.63
2018-06-01T19:59:23.311Z,8.20
2018-06-01T20:01:49.785Z,9.00
2018-06-01T20:04:16.526Z,9.47
2018-06-01T20:06:43.093Z,9.90
2018-06-01T20:09:09.923Z,7.83
2018-06-01T20:11:36.911Z,9.10
2018-06-01T20:14:03.525Z,8.00
2018-06-01T20:16:29.887Z,7.93
2018-06-01T20:18:56.260Z,8.90
2018-06-01T20:21:22.605Z,11.37
2018-06-01T20:23:48.947Z,7.73
2018-06-01T20:26:15.282Z,8.00
2018-06-01T20:28:41.657Z,10.47
2018-06-01T20:31:08.127Z,8.60
2018-06-01T20:33:34.470Z,8.67
2018-06-01T20:36:00.804Z,8.47
2018-06-01T20:38:27.160Z,11.70
2018-06-01T20:40:53.525Z,9.50
2018-06-01T20:43:19.980Z,8.00
2018-06-01T20:45:46.356Z,10.73
2018-06-01T20:48:13.134Z,8.23
2018-06-01T20:50:39.735Z,7.20
2018-06-01T20:53:06.260Z,10.80
2018-06-01T20:55:37.532Z,7.37
2018-06-01T20:58:04.165Z,7.63
2018-06-01T21:00:30.577Z,8.97
2018-06-01T21:02:56.965Z,7.67
2018-06-01T21:05:23.374Z,11.70
2018-06-01T21:07:49.766Z,11.93
2018-06-01T21:10:16.122Z,8.77
2018-06-01T21:12:42.465Z,7.13
2018-06-01T21:15:08.813Z,9.43
2018-06-01T21:17:35.178Z,5.90
2018-06-01T21:20:01.609Z,8.80
2018-06-01T21:22:27.937Z,11.23
2018-06-01T21:24:54.322Z,7.80
2018-06-01T21:27:20.729Z,9.17
2018-06-01T21:29:47.164Z,7.17
2018-06-01T21:32:13.522Z,10.87
2018-06-01T21:34:39.857Z,10.73
2018-06-01T21:37:06.206Z,8.87
2018-06-01T21:39:32.670Z,8.53
2018-06-01T21:41:59.610Z,8.77
2018-06-01T21:44:25.941Z,12.13
2018-06-01T21:46:52.284Z,10.67
2018-06-01T21:49:18.605Z,11.80
2018-06-01T21:51:44.926Z,12.93
2018-06-01T21:54:11.265Z,10.13
2018-06-01T21:56:37.732Z,7.87
2018-06-01T21:59:04.136Z,8.23
2018-06-01T22:01:30.491Z,12.80
2018-06-01T22:03:56.844Z,10.10
2018-06-01T22:06:23.234Z,8.27
2018-06-01T22:08:49.588Z,12.83
2018-06-01T22:11:15.898Z,11.80
2018-06-01T22:13:42.230Z,9.60
2018-06-01T22:16:08.689Z,7.20
2018-06-01T22:18:35.044Z,7.93
2018-06-01T22:21:01.455Z,9.70
2018-06-01T22:23:27.805Z,10.50
2018-06-01T22:25:54.165Z,11.27
2018-06-01T22:28:20.526Z,11.00
2018-06-01T22:30:46.875Z,10.03
2018-06-01T22:33:13.218Z,11.23
2018-06-01T22:35:39.555Z,9.07
2018-06-01T22:38:05.913Z,8.93
2018-06-01T22:40:32.253Z,7.80
2018-06-01T22:42:58.592Z,13.53
2018-06-01T22:45:24.931Z,11.83
2018-06-01T22:47:51.294Z,12.67
2018-06-01T22:50:17.627Z,17.33
2018-06-01T22:52:44.026Z,13.87
2018-06-01T22:55:10.409Z,10.47
2018-06-01T22:57:36.822Z,8.47
2018-06-01T23:00:03.228Z,11.80
2018-06-01T23:02:29.503Z,15.33
2018-06-01T23:04:55.909Z,10.53
2018-06-01T23:07:22.249Z,12.33
2018-06-01T23:09:48.591Z,11.53
2018-06-01T23:12:14.948Z,12.00
2018-06-01T23:14:42.105Z,10.47
2018-06-01T23:17:08.474Z,10.03
2018-06-01T23:19:34.828Z,9.77
2018-06-01T23:22:01.153Z,7.97
2018-06-01T23:24:27.592Z,18.40
2018-06-01T23:26:53.954Z,11.17
2018-06-01T23:29:20.302Z,13.17
2018-06-01T23:31:46.658Z,11.90
2018-06-01T23:34:13.046Z,10.10
2018-06-01T23:36:39.410Z,12.77
2018-06-01T23:39:05.810Z,13.60
2018-06-01T23:41:32.218Z,12.57
2018-06-01T23:43:58.582Z,14.80
2018-06-01T23:46:24.982Z,10.90
2018-06-01T23:48:51.415Z,12.97
2018-06-01T23:51:17.782Z,14.53
2018-06-01T23:53:44.164Z,16.83
2018-06-01T23:56:10.507Z,13.30
2018-06-01T23:58:36.841Z,11.50
